»·PEaware :: VRD1930 KSFO-KLAX

VRD1930 :: KSFO-KLAX

FLIGHT INFORMATION

Flight Status: Arrived
Operator:
Virgin America
More flights by this operator :: More flights under this callsign
Pilot: Brad Z. (13827)
Aircraft: AIRBUS A320
(A320)
More flights by this aircraft type
Origin: KSFO San Francisco Intl
United States
Destination: KLAX Los Angeles Intl
United States
More flights between these airports :: More routes between these airports
Route: +WESLA3 EBAYE AVE SADDE7
File this flight plan on PilotEdge
Remarks:
Altitude:
(Current/Filed)
350ft
Speed:
(Current/Filed)
541kts
Departed: 20-Mar-17 04:30 PM
Arrived: 20-Mar-17 05:32 PM
Distance/Time
Traveled:
293nm/1:02
Distance/Time
To Go:
Arrived

Flight Plot

Page will automatically refresh every two minutes.


Map Options




Map Legend


Flown Route
Filed Route
Departure Airport
Arrival Airport
Navaid (VOR, NDB)
Fix

Horizontal Profiles

Position Reports

Time Latitude Longitude Heading Altitude Ground
Speed
20-Mar-17 16:07 37.617860 -122.380639 256 27ft 0kts
20-Mar-17 16:08 37.617860 -122.380639 256 27ft 0kts
20-Mar-17 16:09 37.617860 -122.380639 256 27ft 0kts
20-Mar-17 16:10 37.617860 -122.380639 256 27ft 0kts
20-Mar-17 16:11 37.617860 -122.380639 256 27ft 0kts
20-Mar-17 16:12 37.617860 -122.380639 256 27ft 0kts
20-Mar-17 16:13 37.617860 -122.380639 256 27ft 0kts
20-Mar-17 16:14 37.617860 -122.380639 256 27ft 0kts
20-Mar-17 16:15 37.617860 -122.380639 256 27ft 0kts
20-Mar-17 16:16 37.617860 -122.380639 256 27ft 0kts
20-Mar-17 16:17 37.617860 -122.380639 256 27ft 0kts
20-Mar-17 16:18 37.617860 -122.380639 256 27ft 0kts
20-Mar-17 16:19 37.617980 -122.379976 256 27ft 2kts
20-Mar-17 16:20 37.618059 -122.379534 256 27ft 0kts
20-Mar-17 16:21 37.618059 -122.379535 256 27ft 0kts
20-Mar-17 16:22 37.618059 -122.379535 256 27ft 0kts
20-Mar-17 16:23 37.618150 -122.379610 26 27ft 0kts
20-Mar-17 16:24 37.618941 -122.378677 86 27ft 0kts
20-Mar-17 16:25 37.618325 -122.378558 126 27ft 6kts
20-Mar-17 16:26 37.617117 -122.374912 112 27ft 15kts
20-Mar-17 16:27 37.614302 -122.368659 132 27ft 25kts
20-Mar-17 16:28 37.611323 -122.362376 116 27ft 23kts
20-Mar-17 16:29 37.611112 -122.359034 25 27ft 3kts
20-Mar-17 16:30 37.612097 -122.359179 297 27ft 0kts
20-Mar-17 16:31 37.624452 -122.389850 294 792ft 167kts
20-Mar-17 16:32 37.649375 -122.446217 293 2843ft 212kts
20-Mar-17 16:33 37.667253 -122.523893 233 4774ft 252kts
20-Mar-17 16:34 37.603947 -122.522588 161 7816ft 263kts
20-Mar-17 16:35 37.532701 -122.492650 164 10531ft 286kts
20-Mar-17 16:36 37.457705 -122.433809 135 11872ft 356kts
20-Mar-17 16:37 37.390517 -122.339744 137 14390ft 365kts
20-Mar-17 16:38 37.319983 -122.244424 138 16529ft 378kts
20-Mar-17 16:39 37.247176 -122.145972 138 18510ft 388kts
20-Mar-17 16:40 37.172134 -122.044982 138 20143ft 403kts
20-Mar-17 16:41 37.094349 -121.940308 139 21620ft 417kts
20-Mar-17 16:42 37.014158 -121.832950 139 23059ft 429kts
20-Mar-17 16:43 36.931515 -121.722707 139 24336ft 440kts
20-Mar-17 16:44 36.846672 -121.609630 139 25636ft 448kts
20-Mar-17 16:45 36.760595 -121.495655 139 26836ft 456kts
20-Mar-17 16:46 36.673034 -121.379894 139 28013ft 461kts
20-Mar-17 16:47 36.584218 -121.263054 139 28863ft 471kts
20-Mar-17 16:48 36.494016 -121.144605 139 30078ft 468kts
20-Mar-17 16:49 36.405314 -121.025500 137 31117ft 473kts
20-Mar-17 16:50 36.319847 -120.902118 137 32236ft 471kts
20-Mar-17 16:51 36.234181 -120.779786 137 33327ft 468kts
20-Mar-17 16:52 36.148648 -120.657651 137 34100ft 470kts
20-Mar-17 16:53 36.062713 -120.535575 137 34878ft 471kts
20-Mar-17 16:54 35.976439 -120.413319 137 35110ft 472kts
20-Mar-17 16:55 35.890027 -120.291507 137 35086ft 472kts
20-Mar-17 16:56 35.800502 -120.174187 140 35059ft 469kts
20-Mar-17 16:57 35.709781 -120.059112 140 35053ft 469kts
20-Mar-17 16:58 35.614689 -119.950174 150 35069ft 462kts
20-Mar-17 16:59 35.509483 -119.860653 151 35153ft 461kts
20-Mar-17 17:00 35.404419 -119.769495 151 35120ft 462kts
20-Mar-17 17:01 35.299093 -119.679186 150 35166ft 462kts
20-Mar-17 17:02 35.193783 -119.588814 151 35115ft 462kts
20-Mar-17 17:03 35.088389 -119.498946 150 33991ft 461kts
20-Mar-17 17:04 34.983640 -119.409791 150 32201ft 455kts
20-Mar-17 17:05 34.881141 -119.322689 150 29876ft 445kts
20-Mar-17 17:06 34.777887 -119.235528 150 26690ft 460kts
20-Mar-17 17:07 34.675205 -119.148770 150 24324ft 430kts
20-Mar-17 17:08 34.583735 -119.071565 151 23599ft 370kts
20-Mar-17 17:09 34.502950 -119.003930 151 21581ft 344kts
20-Mar-17 17:10 34.426519 -118.939746 151 19260ft 328kts
20-Mar-17 17:11 34.352901 -118.880300 162 17072ft 308kts
20-Mar-17 17:12 34.273559 -118.850614 168 15479ft 294kts
20-Mar-17 17:13 34.194899 -118.821719 166 13097ft 311kts
20-Mar-17 17:14 34.113210 -118.791632 166 11740ft 285kts
20-Mar-17 17:15 34.044171 -118.756811 133 10734ft 267kts
20-Mar-17 17:16 34.030759 -118.673801 100 9965ft 253kts
20-Mar-17 17:17 34.022642 -118.590401 98 8568ft 247kts
20-Mar-17 17:18 34.015014 -118.509532 98 7143ft 239kts
20-Mar-17 17:19 34.015354 -118.430889 82 5707ft 234kts
20-Mar-17 17:20 34.026231 -118.354521 81 5008ft 230kts
20-Mar-17 17:21 34.036711 -118.279855 81 4942ft 214kts
20-Mar-17 17:22 34.046987 -118.209610 81 5028ft 211kts
20-Mar-17 17:23 34.057291 -118.139599 81 4992ft 212kts
20-Mar-17 17:24 34.060565 -118.070602 128 4966ft 205kts
20-Mar-17 17:25 34.013522 -118.079956 222 5020ft 203kts
20-Mar-17 17:26 33.980686 -118.133305 249 4958ft 178kts
20-Mar-17 17:27 33.973569 -118.189190 259 4182ft 179kts
20-Mar-17 17:28 33.967817 -118.247292 262 2922ft 171kts
20-Mar-17 17:29 33.962629 -118.298355 262 2008ft 153kts
20-Mar-17 17:30 33.958049 -118.344853 261 997ft 122kts
20-Mar-17 17:31 33.953542 -118.387554 261 379ft 127kts
20-Mar-17 17:32 33.949512 -118.426511 261 140ft 57kts
20-Mar-17 17:33 33.949411 -118.430224 246 140ft 4kts
20-Mar-17 17:34 33.947554 -118.430936 176 140ft 7kts
20-Mar-17 17:35 33.946418 -118.430016 124 140ft 4kts
20-Mar-17 17:36 33.946298 -118.428018 83 140ft 11kts
20-Mar-17 17:37 33.946723 -118.423336 83 140ft 16kts
20-Mar-17 17:38 33.947371 -118.417415 82 140ft 18kts
20-Mar-17 17:39 33.948064 -118.411426 85 140ft 18kts
20-Mar-17 17:40 33.948430 -118.406196 137 140ft 11kts
20-Mar-17 17:41 33.947007 -118.405925 184 140ft 3kts
20-Mar-17 17:42 33.946737 -118.406648 258 140ft 0kts
20-Mar-17 17:43 33.946737 -118.406648 258 140ft 0kts

Navigation Log

Ident Type
1. KSFO Airport
2. WESLA Fix
3. PORTE Fix
4. SUSEY Fix
5. EBAYE Fix
6. AVE Navaid
7. DERBB Fix
8. REYES Fix
9. FIM Navaid
10. SYMON Fix
11. SADDE Fix
12. BAYST Fix
13. SMO Navaid
14. KLAX Airport